sensor_id;sensor_type;location;lat;lon;timestamp;temperature;humidity
42979;DHT22;28616;44.746;19.678;2022-11-20T00:01:12;8.40;99.90
42979;DHT22;28616;44.746;19.678;2022-11-20T00:03:38;8.30;99.90
42979;DHT22;28616;44.746;19.678;2022-11-20T00:06:06;8.30;99.90
42979;DHT22;28616;44.746;19.678;2022-11-20T00:08:32;8.30;99.90
42979;DHT22;28616;44.746;19.678;2022-11-20T00:11:06;8.30;99.90
42979;DHT22;28616;44.746;19.678;2022-11-20T00:13:33;8.30;99.90
42979;DHT22;28616;44.746;19.678;2022-11-20T00:16:00;8.20;99.90
42979;DHT22;28616;44.746;19.678;2022-11-20T00:18:27;8.20;99.90
42979;DHT22;28616;44.746;19.678;2022-11-20T00:20:53;8.20;99.90
42979;DHT22;28616;44.746;19.678;2022-11-20T00:23:20;8.20;99.90
42979;DHT22;28616;44.746;19.678;2022-11-20T00:25:45;8.20;99.90
42979;DHT22;28616;44.746;19.678;2022-11-20T00:28:11;8.20;99.90
42979;DHT22;28616;44.746;19.678;2022-11-20T00:30:37;8.20;99.90
42979;DHT22;28616;44.746;19.678;2022-11-20T00:33:03;8.20;99.90
42979;DHT22;28616;44.746;19.678;2022-11-20T00:35:29;8.10;99.90
42979;DHT22;28616;44.746;19.678;2022-11-20T00:37:55;8.10;99.90
42979;DHT22;28616;44.746;19.678;2022-11-20T00:40:20;8.20;99.90
42979;DHT22;28616;44.746;19.678;2022-11-20T00:42:46;8.10;99.90
42979;DHT22;28616;44.746;19.678;2022-11-20T00:45:12;8.10;99.90
42979;DHT22;28616;44.746;19.678;2022-11-20T00:47:38;8.10;99.90
42979;DHT22;28616;44.746;19.678;2022-11-20T00:50:04;8.10;99.90
42979;DHT22;28616;44.746;19.678;2022-11-20T00:52:30;8.00;99.90
42979;DHT22;28616;44.746;19.678;2022-11-20T00:54:55;8.00;99.90
42979;DHT22;28616;44.746;19.678;2022-11-20T00:57:21;8.00;99.90
42979;DHT22;28616;44.746;19.678;2022-11-20T00:59:47;8.00;99.90
42979;DHT22;28616;44.746;19.678;2022-11-20T01:02:13;8.00;99.90
42979;DHT22;28616;44.746;19.678;2022-11-20T01:04:40;8.00;99.90
42979;DHT22;28616;44.746;19.678;2022-11-20T01:07:06;8.00;99.90
42979;DHT22;28616;44.746;19.678;2022-11-20T01:09:32;8.00;99.90
42979;DHT22;28616;44.746;19.678;2022-11-20T01:11:58;8.00;99.90
42979;DHT22;28616;44.746;19.678;2022-11-20T01:14:24;8.00;99.90
42979;DHT22;28616;44.746;19.678;2022-11-20T01:16:51;8.00;99.90
42979;DHT22;28616;44.746;19.678;2022-11-20T01:19:20;8.00;99.90
42979;DHT22;28616;44.746;19.678;2022-11-20T01:21:52;8.10;99.90
42979;DHT22;28616;44.746;19.678;2022-11-20T01:24:19;8.10;99.90
42979;DHT22;28616;44.746;19.678;2022-11-20T01:26:47;8.00;99.90
42979;DHT22;28616;44.746;19.678;2022-11-20T01:29:16;8.00;99.90
42979;DHT22;28616;44.746;19.678;2022-11-20T01:31:43;7.90;99.90
42979;DHT22;28616;44.746;19.678;2022-11-20T01:34:15;7.90;99.90
42979;DHT22;28616;44.746;19.678;2022-11-20T01:36:41;7.90;99.90
42979;DHT22;28616;44.746;19.678;2022-11-20T01:39:12;7.90;99.90
42979;DHT22;28616;44.746;19.678;2022-11-20T01:41:38;7.90;99.90
42979;DHT22;28616;44.746;19.678;2022-11-20T01:44:54;7.90;99.90
42979;DHT22;28616;44.746;19.678;2022-11-20T01:50:12;7.80;99.90
42979;DHT22;28616;44.746;19.678;2022-11-20T01:52:47;7.80;99.90
42979;DHT22;28616;44.746;19.678;2022-11-20T01:55:17;7.80;99.90
42979;DHT22;28616;44.746;19.678;2022-11-20T01:57:45;7.80;99.90
42979;DHT22;28616;44.746;19.678;2022-11-20T02:00:15;7.80;99.90
42979;DHT22;28616;44.746;19.678;2022-11-20T02:02:45;7.80;99.90
42979;DHT22;28616;44.746;19.678;2022-11-20T02:05:37;7.70;99.90
42979;DHT22;28616;44.746;19.678;2022-11-20T02:08:05;7.80;99.90
42979;DHT22;28616;44.746;19.678;2022-11-20T02:10:32;7.80;99.90
42979;DHT22;28616;44.746;19.678;2022-11-20T02:12:58;7.70;99.90
42979;DHT22;28616;44.746;19.678;2022-11-20T02:15:43;7.70;99.90
42979;DHT22;28616;44.746;19.678;2022-11-20T02:18:10;7.70;99.90
42979;DHT22;28616;44.746;19.678;2022-11-20T02:20:36;7.70;99.90
42979;DHT22;28616;44.746;19.678;2022-11-20T02:23:04;7.70;99.90
42979;DHT22;28616;44.746;19.678;2022-11-20T02:25:32;7.70;99.90
42979;DHT22;28616;44.746;19.678;2022-11-20T02:28:00;7.70;99.90
42979;DHT22;28616;44.746;19.678;2022-11-20T02:30:26;7.70;99.90
42979;DHT22;28616;44.746;19.678;2022-11-20T02:32:52;7.70;99.90
42979;DHT22;28616;44.746;19.678;2022-11-20T02:37:45;7.80;99.90
42979;DHT22;28616;44.746;19.678;2022-11-20T02:40:13;7.70;99.90
42979;DHT22;28616;44.746;19.678;2022-11-20T02:42:39;7.70;99.90
42979;DHT22;28616;44.746;19.678;2022-11-20T02:45:05;7.70;99.90
42979;DHT22;28616;44.746;19.678;2022-11-20T02:47:31;7.70;99.90
42979;DHT22;28616;44.746;19.678;2022-11-20T02:49:58;7.80;99.90
42979;DHT22;28616;44.746;19.678;2022-11-20T02:52:24;7.70;99.90
42979;DHT22;28616;44.746;19.678;2022-11-20T02:54:50;7.70;99.90
42979;DHT22;28616;44.746;19.678;2022-11-20T02:57:15;7.70;99.90
42979;DHT22;28616;44.746;19.678;2022-11-20T02:59:41;7.70;99.90
42979;DHT22;28616;44.746;19.678;2022-11-20T03:02:07;7.70;99.90
42979;DHT22;28616;44.746;19.678;2022-11-20T03:04:33;7.60;99.90
42979;DHT22;28616;44.746;19.678;2022-11-20T03:06:58;7.70;99.90
42979;DHT22;28616;44.746;19.678;2022-11-20T03:09:24;7.60;99.90
42979;DHT22;28616;44.746;19.678;2022-11-20T03:11:50;7.60;99.90
42979;DHT22;28616;44.746;19.678;2022-11-20T03:14:16;7.70;99.90
42979;DHT22;28616;44.746;19.678;2022-11-20T03:16:42;7.60;99.90
42979;DHT22;28616;44.746;19.678;2022-11-20T03:19:07;7.70;99.90
42979;DHT22;28616;44.746;19.678;2022-11-20T03:21:34;7.70;99.90
42979;DHT22;28616;44.746;19.678;2022-11-20T03:23:59;7.70;99.90
42979;DHT22;28616;44.746;19.678;2022-11-20T03:26:26;7.60;99.90
42979;DHT22;28616;44.746;19.678;2022-11-20T03:28:55;7.60;99.90
42979;DHT22;28616;44.746;19.678;2022-11-20T03:31:23;7.50;99.90
42979;DHT22;28616;44.746;19.678;2022-11-20T03:33:50;7.60;99.90
42979;DHT22;28616;44.746;19.678;2022-11-20T03:36:17;7.50;99.90
42979;DHT22;28616;44.746;19.678;2022-11-20T03:38:43;7.50;99.90
42979;DHT22;28616;44.746;19.678;2022-11-20T03:41:16;7.50;99.90
42979;DHT22;28616;44.746;19.678;2022-11-20T03:43:47;7.50;99.90
42979;DHT22;28616;44.746;19.678;2022-11-20T03:46:13;7.40;99.90
42979;DHT22;28616;44.746;19.678;2022-11-20T03:48:39;7.50;99.90
42979;DHT22;28616;44.746;19.678;2022-11-20T03:51:22;7.50;99.90
42979;DHT22;28616;44.746;19.678;2022-11-20T03:53:51;7.50;99.90
42979;DHT22;28616;44.746;19.678;2022-11-20T03:56:19;7.50;99.90
42979;DHT22;28616;44.746;19.678;2022-11-20T03:58:45;7.40;99.90
42979;DHT22;28616;44.746;19.678;2022-11-20T04:01:20;7.40;99.90
42979;DHT22;28616;44.746;19.678;2022-11-20T04:03:46;7.40;99.90
42979;DHT22;28616;44.746;19.678;2022-11-20T04:06:21;7.30;99.90
42979;DHT22;28616;44.746;19.678;2022-11-20T04:08:48;7.40;99.90
42979;DHT22;28616;44.746;19.678;2022-11-20T04:11:16;7.30;99.90
42979;DHT22;28616;44.746;19.678;2022-11-20T04:13:42;7.30;99.90
42979;DHT22;28616;44.746;19.678;2022-11-20T04:16:11;7.30;99.90
42979;DHT22;28616;44.746;19.678;2022-11-20T04:18:36;7.30;99.90
42979;DHT22;28616;44.746;19.678;2022-11-20T04:21:03;7.20;99.90
42979;DHT22;28616;44.746;19.678;2022-11-20T04:23:29;7.20;99.90
42979;DHT22;28616;44.746;19.678;2022-11-20T04:26:04;7.30;99.90
42979;DHT22;28616;44.746;19.678;2022-11-20T04:28:30;7.30;99.90
42979;DHT22;28616;44.746;19.678;2022-11-20T04:31:05;7.30;99.90
42979;DHT22;28616;44.746;19.678;2022-11-20T04:33:31;7.30;99.90
42979;DHT22;28616;44.746;19.678;2022-11-20T04:36:06;7.30;99.90
42979;DHT22;28616;44.746;19.678;2022-11-20T04:38:33;7.30;99.90
42979;DHT22;28616;44.746;19.678;2022-11-20T04:41:03;7.40;99.90
42979;DHT22;28616;44.746;19.678;2022-11-20T04:43:30;7.40;99.90
42979;DHT22;28616;44.746;19.678;2022-11-20T04:45:56;7.30;99.90
42979;DHT22;28616;44.746;19.678;2022-11-20T04:48:23;7.30;99.90
42979;DHT22;28616;44.746;19.678;2022-11-20T04:50:49;7.30;99.90
42979;DHT22;28616;44.746;19.678;2022-11-20T04:53:15;7.30;99.90
42979;DHT22;28616;44.746;19.678;2022-11-20T04:55:41;7.30;99.90
42979;DHT22;28616;44.746;19.678;2022-11-20T04:58:07;7.30;99.90
42979;DHT22;28616;44.746;19.678;2022-11-20T05:00:33;7.30;99.90
42979;DHT22;28616;44.746;19.678;2022-11-20T05:02:58;7.30;99.90
42979;DHT22;28616;44.746;19.678;2022-11-20T05:05:24;7.30;99.90
42979;DHT22;28616;44.746;19.678;2022-11-20T05:07:50;7.30;99.90
42979;DHT22;28616;44.746;19.678;2022-11-20T05:10:16;7.40;99.90
42979;DHT22;28616;44.746;19.678;2022-11-20T05:12:42;7.40;99.90
42979;DHT22;28616;44.746;19.678;2022-11-20T05:15:08;7.40;99.90
42979;DHT22;28616;44.746;19.678;2022-11-20T05:17:34;7.40;99.90
42979;DHT22;28616;44.746;19.678;2022-11-20T05:19:59;7.40;99.90
42979;DHT22;28616;44.746;19.678;2022-11-20T05:22:25;7.40;99.90
42979;DHT22;28616;44.746;19.678;2022-11-20T05:24:51;7.40;99.90
42979;DHT22;28616;44.746;19.678;2022-11-20T05:27:17;7.40;99.90
42979;DHT22;28616;44.746;19.678;2022-11-20T05:29:42;7.40;99.90
42979;DHT22;28616;44.746;19.678;2022-11-20T05:32:08;7.40;99.90
42979;DHT22;28616;44.746;19.678;2022-11-20T05:34:35;7.40;99.90
42979;DHT22;28616;44.746;19.678;2022-11-20T05:37:02;7.40;99.90
42979;DHT22;28616;44.746;19.678;2022-11-20T05:39:28;7.40;99.90
42979;DHT22;28616;44.746;19.678;2022-11-20T05:41:53;7.30;99.90
42979;DHT22;28616;44.746;19.678;2022-11-20T05:44:37;7.30;99.90
42979;DHT22;28616;44.746;19.678;2022-11-20T05:47:03;7.40;99.90
42979;DHT22;28616;44.746;19.678;2022-11-20T05:49:29;7.30;99.90
42979;DHT22;28616;44.746;19.678;2022-11-20T05:51:55;7.40;99.90
42979;DHT22;28616;44.746;19.678;2022-11-20T05:54:20;7.40;99.90
42979;DHT22;28616;44.746;19.678;2022-11-20T05:56:46;7.40;99.90
42979;DHT22;28616;44.746;19.678;2022-11-20T05:59:12;7.40;99.90
42979;DHT22;28616;44.746;19.678;2022-11-20T06:01:38;7.40;99.90
42979;DHT22;28616;44.746;19.678;2022-11-20T06:04:03;7.40;99.90
42979;DHT22;28616;44.746;19.678;2022-11-20T06:06:29;7.40;99.90
42979;DHT22;28616;44.746;19.678;2022-11-20T06:08:55;7.40;99.90
42979;DHT22;28616;44.746;19.678;2022-11-20T06:11:21;7.50;99.90
42979;DHT22;28616;44.746;19.678;2022-11-20T06:13:47;7.40;99.90
42979;DHT22;28616;44.746;19.678;2022-11-20T06:16:16;7.50;99.90
42979;DHT22;28616;44.746;19.678;2022-11-20T06:18:42;7.50;99.90
42979;DHT22;28616;44.746;19.678;2022-11-20T06:21:21;7.50;99.90
42979;DHT22;28616;44.746;19.678;2022-11-20T06:23:48;7.50;99.90
42979;DHT22;28616;44.746;19.678;2022-11-20T06:26:17;7.50;99.90
42979;DHT22;28616;44.746;19.678;2022-11-20T06:28:43;7.60;99.90
42979;DHT22;28616;44.746;19.678;2022-11-20T06:31:12;7.50;99.90
42979;DHT22;28616;44.746;19.678;2022-11-20T06:33:39;7.50;99.90
42979;DHT22;28616;44.746;19.678;2022-11-20T06:36:05;7.50;99.90
42979;DHT22;28616;44.746;19.678;2022-11-20T06:38:31;7.50;99.90
42979;DHT22;28616;44.746;19.678;2022-11-20T06:40:56;7.50;99.90
42979;DHT22;28616;44.746;19.678;2022-11-20T06:43:23;7.50;99.90
42979;DHT22;28616;44.746;19.678;2022-11-20T06:45:56;7.50;99.90
42979;DHT22;28616;44.746;19.678;2022-11-20T06:48:23;7.50;99.90
42979;DHT22;28616;44.746;19.678;2022-11-20T06:50:49;7.50;99.90
42979;DHT22;28616;44.746;19.678;2022-11-20T06:53:15;7.40;99.90
42979;DHT22;28616;44.746;19.678;2022-11-20T06:55:45;7.40;99.90
42979;DHT22;28616;44.746;19.678;2022-11-20T06:58:11;7.50;99.90
42979;DHT22;28616;44.746;19.678;2022-11-20T07:00:37;7.50;99.90
42979;DHT22;28616;44.746;19.678;2022-11-20T07:03:07;7.40;99.90
42979;DHT22;28616;44.746;19.678;2022-11-20T07:05:35;7.50;99.90
42979;DHT22;28616;44.746;19.678;2022-11-20T07:08:01;7.50;99.90
42979;DHT22;28616;44.746;19.678;2022-11-20T07:10:27;7.40;99.90
42979;DHT22;28616;44.746;19.678;2022-11-20T07:12:53;7.50;99.90
42979;DHT22;28616;44.746;19.678;2022-11-20T07:15:20;7.50;99.90
42979;DHT22;28616;44.746;19.678;2022-11-20T07:17:47;7.50;99.90
42979;DHT22;28616;44.746;19.678;2022-11-20T07:20:14;7.40;99.90
42979;DHT22;28616;44.746;19.678;2022-11-20T07:22:40;7.40;99.90
42979;DHT22;28616;44.746;19.678;2022-11-20T07:25:06;7.40;99.90
42979;DHT22;28616;44.746;19.678;2022-11-20T07:27:32;7.40;99.90
42979;DHT22;28616;44.746;19.678;2022-11-20T07:29:58;7.50;99.90
42979;DHT22;28616;44.746;19.678;2022-11-20T07:32:24;7.40;99.90
42979;DHT22;28616;44.746;19.678;2022-11-20T07:34:49;7.40;99.90
42979;DHT22;28616;44.746;19.678;2022-11-20T07:37:16;7.40;99.90
42979;DHT22;28616;44.746;19.678;2022-11-20T07:39:42;7.40;99.90
42979;DHT22;28616;44.746;19.678;2022-11-20T07:42:08;7.50;99.90
42979;DHT22;28616;44.746;19.678;2022-11-20T07:44:34;7.40;99.90
42979;DHT22;28616;44.746;19.678;2022-11-20T07:47:01;7.40;99.90
42979;DHT22;28616;44.746;19.678;2022-11-20T07:49:27;7.40;99.90
42979;DHT22;28616;44.746;19.678;2022-11-20T07:51:53;7.40;99.90
42979;DHT22;28616;44.746;19.678;2022-11-20T07:54:22;7.30;99.90
42979;DHT22;28616;44.746;19.678;2022-11-20T07:56:48;7.30;99.90
42979;DHT22;28616;44.746;19.678;2022-11-20T07:59:15;7.30;99.90
42979;DHT22;28616;44.746;19.678;2022-11-20T08:01:42;7.40;99.90
42979;DHT22;28616;44.746;19.678;2022-11-20T08:04:08;7.30;99.90
42979;DHT22;28616;44.746;19.678;2022-11-20T08:06:35;7.40;99.90
42979;DHT22;28616;44.746;19.678;2022-11-20T08:09:01;7.40;99.90
42979;DHT22;28616;44.746;19.678;2022-11-20T08:11:27;7.40;99.90
42979;DHT22;28616;44.746;19.678;2022-11-20T08:14:11;7.30;99.90
42979;DHT22;28616;44.746;19.678;2022-11-20T08:16:41;7.40;99.90
42979;DHT22;28616;44.746;19.678;2022-11-20T08:19:07;7.30;99.90
42979;DHT22;28616;44.746;19.678;2022-11-20T08:21:33;7.30;99.90
42979;DHT22;28616;44.746;19.678;2022-11-20T08:23:59;7.40;99.90
42979;DHT22;28616;44.746;19.678;2022-11-20T08:26:25;7.40;99.90
42979;DHT22;28616;44.746;19.678;2022-11-20T08:28:58;7.40;99.90
42979;DHT22;28616;44.746;19.678;2022-11-20T08:31:25;7.40;99.90
42979;DHT22;28616;44.746;19.678;2022-11-20T08:33:52;7.50;99.90
42979;DHT22;28616;44.746;19.678;2022-11-20T08:36:20;7.50;99.90
42979;DHT22;28616;44.746;19.678;2022-11-20T08:38:51;7.50;99.90
42979;DHT22;28616;44.746;19.678;2022-11-20T08:41:18;7.50;99.90
42979;DHT22;28616;44.746;19.678;2022-11-20T08:44:01;7.50;99.90
42979;DHT22;28616;44.746;19.678;2022-11-20T08:46:32;7.50;99.90
42979;DHT22;28616;44.746;19.678;2022-11-20T08:48:58;7.50;99.90
42979;DHT22;28616;44.746;19.678;2022-11-20T08:51:24;7.40;99.90
42979;DHT22;28616;44.746;19.678;2022-11-20T08:53:50;7.40;99.90
42979;DHT22;28616;44.746;19.678;2022-11-20T08:56:16;7.40;99.90
42979;DHT22;28616;44.746;19.678;2022-11-20T08:58:43;7.40;99.90
42979;DHT22;28616;44.746;19.678;2022-11-20T09:01:09;7.40;99.90
42979;DHT22;28616;44.746;19.678;2022-11-20T09:03:35;7.40;99.90
42979;DHT22;28616;44.746;19.678;2022-11-20T09:06:02;7.50;99.90
42979;DHT22;28616;44.746;19.678;2022-11-20T09:08:29;7.40;99.90
42979;DHT22;28616;44.746;19.678;2022-11-20T09:10:56;7.40;99.90
42979;DHT22;28616;44.746;19.678;2022-11-20T09:13:23;7.50;99.90
42979;DHT22;28616;44.746;19.678;2022-11-20T09:15:57;7.50;99.90
42979;DHT22;28616;44.746;19.678;2022-11-20T09:18:24;7.60;99.90
42979;DHT22;28616;44.746;19.678;2022-11-20T09:20:50;7.70;99.90
42979;DHT22;28616;44.746;19.678;2022-11-20T09:23:16;7.70;99.90
42979;DHT22;28616;44.746;19.678;2022-11-20T09:25:43;7.70;99.90
42979;DHT22;28616;44.746;19.678;2022-11-20T09:28:09;7.70;99.90
42979;DHT22;28616;44.746;19.678;2022-11-20T09:30:35;7.80;99.90
42979;DHT22;28616;44.746;19.678;2022-11-20T09:33:01;7.90;99.90
42979;DHT22;28616;44.746;19.678;2022-11-20T09:35:27;7.90;99.90
42979;DHT22;28616;44.746;19.678;2022-11-20T09:37:52;7.90;99.90
42979;DHT22;28616;44.746;19.678;2022-11-20T09:40:23;7.80;99.90
42979;DHT22;28616;44.746;19.678;2022-11-20T09:45:29;7.80;99.90
42979;DHT22;28616;44.746;19.678;2022-11-20T09:50:36;7.80;99.90
42979;DHT22;28616;44.746;19.678;2022-11-20T09:53:13;7.80;99.90
42979;DHT22;28616;44.746;19.678;2022-11-20T09:55:40;7.80;99.90
42979;DHT22;28616;44.746;19.678;2022-11-20T09:58:15;7.90;99.90
42979;DHT22;28616;44.746;19.678;2022-11-20T10:00:41;7.90;99.90
42979;DHT22;28616;44.746;19.678;2022-11-20T10:03:19;7.90;99.90
42979;DHT22;28616;44.746;19.678;2022-11-20T10:05:50;7.90;99.90
42979;DHT22;28616;44.746;19.678;2022-11-20T10:22:10;7.90;99.90
42979;DHT22;28616;44.746;19.678;2022-11-20T10:30:23;7.80;99.90
42979;DHT22;28616;44.746;19.678;2022-11-20T10:33:04;7.80;99.90
42979;DHT22;28616;44.746;19.678;2022-11-20T10:35:35;7.80;99.90
42979;DHT22;28616;44.746;19.678;2022-11-20T10:38:14;7.80;99.90
42979;DHT22;28616;44.746;19.678;2022-11-20T10:40:44;7.80;99.90
42979;DHT22;28616;44.746;19.678;2022-11-20T10:43:21;7.80;99.90
42979;DHT22;28616;44.746;19.678;2022-11-20T10:46:08;7.80;99.90
42979;DHT22;28616;44.746;19.678;2022-11-20T10:48:38;7.80;99.90
42979;DHT22;28616;44.746;19.678;2022-11-20T10:54:32;7.80;99.90
42979;DHT22;28616;44.746;19.678;2022-11-20T11:02:51;7.70;99.90
42979;DHT22;28616;44.746;19.678;2022-11-20T11:07:47;7.60;99.90
42979;DHT22;28616;44.746;19.678;2022-11-20T11:13:01;7.60;99.90
42979;DHT22;28616;44.746;19.678;2022-11-20T11:15:45;7.60;99.90
42979;DHT22;28616;44.746;19.678;2022-11-20T11:18:11;7.60;99.90
42979;DHT22;28616;44.746;19.678;2022-11-20T11:20:37;7.60;99.90
42979;DHT22;28616;44.746;19.678;2022-11-20T11:23:04;7.50;99.90
42979;DHT22;28616;44.746;19.678;2022-11-20T11:25:35;7.40;99.90
42979;DHT22;28616;44.746;19.678;2022-11-20T11:28:20;7.40;99.90
42979;DHT22;28616;44.746;19.678;2022-11-20T11:30:46;7.50;99.90
42979;DHT22;28616;44.746;19.678;2022-11-20T11:33:28;7.40;99.90
42979;DHT22;28616;44.746;19.678;2022-11-20T11:35:55;7.40;99.90
42979;DHT22;28616;44.746;19.678;2022-11-20T11:38:41;7.40;99.90
42979;DHT22;28616;44.746;19.678;2022-11-20T11:41:15;7.40;99.90
42979;DHT22;28616;44.746;19.678;2022-11-20T11:43:53;7.30;99.90
42979;DHT22;28616;44.746;19.678;2022-11-20T11:46:40;7.30;99.90
42979;DHT22;28616;44.746;19.678;2022-11-20T11:52:23;7.20;99.90
42979;DHT22;28616;44.746;19.678;2022-11-20T11:56:51;7.10;99.90
42979;DHT22;28616;44.746;19.678;2022-11-20T12:00:15;7.10;99.90
42979;DHT22;28616;44.746;19.678;2022-11-20T12:04:59;7.10;99.90
42979;DHT22;28616;44.746;19.678;2022-11-20T12:10:19;7.00;99.90
42979;DHT22;28616;44.746;19.678;2022-11-20T12:12:53;7.00;99.90
42979;DHT22;28616;44.746;19.678;2022-11-20T12:15:27;7.00;99.90
42979;DHT22;28616;44.746;19.678;2022-11-20T12:17:54;7.00;99.90
42979;DHT22;28616;44.746;19.678;2022-11-20T12:20:24;7.00;99.90
42979;DHT22;28616;44.746;19.678;2022-11-20T12:26:06;7.00;99.90
42979;DHT22;28616;44.746;19.678;2022-11-20T12:28:44;6.90;99.90
42979;DHT22;28616;44.746;19.678;2022-11-20T12:36:24;6.90;99.90
42979;DHT22;28616;44.746;19.678;2022-11-20T12:45:37;6.90;99.90
42979;DHT22;28616;44.746;19.678;2022-11-20T12:47:50;6.80;99.90
42979;DHT22;28616;44.746;19.678;2022-11-20T12:50:50;6.80;99.90
42979;DHT22;28616;44.746;19.678;2022-11-20T13:01:45;6.70;99.90
42979;DHT22;28616;44.746;19.678;2022-11-20T13:04:30;6.70;99.90
42979;DHT22;28616;44.746;19.678;2022-11-20T13:07:02;6.70;99.90
42979;DHT22;28616;44.746;19.678;2022-11-20T13:09:28;6.70;99.90
42979;DHT22;28616;44.746;19.678;2022-11-20T13:12:22;6.60;99.90
42979;DHT22;28616;44.746;19.678;2022-11-20T13:17:57;6.70;99.90
42979;DHT22;28616;44.746;19.678;2022-11-20T13:20:24;6.70;99.90
42979;DHT22;28616;44.746;19.678;2022-11-20T13:22:52;6.70;99.90
42979;DHT22;28616;44.746;19.678;2022-11-20T13:25:29;6.70;99.90
42979;DHT22;28616;44.746;19.678;2022-11-20T13:27:57;6.60;99.90
42979;DHT22;28616;44.746;19.678;2022-11-20T13:30:25;6.60;99.90
42979;DHT22;28616;44.746;19.678;2022-11-20T13:33:00;6.60;99.90
42979;DHT22;28616;44.746;19.678;2022-11-20T13:38:08;6.60;99.90
42979;DHT22;28616;44.746;19.678;2022-11-20T13:40:49;6.60;99.90
42979;DHT22;28616;44.746;19.678;2022-11-20T13:43:21;6.60;99.90
42979;DHT22;28616;44.746;19.678;2022-11-20T13:45:59;6.60;99.90
42979;DHT22;28616;44.746;19.678;2022-11-20T13:48:40;6.60;99.90
42979;DHT22;28616;44.746;19.678;2022-11-20T14:00:13;6.70;99.90
42979;DHT22;28616;44.746;19.678;2022-11-20T14:02:40;6.70;99.90
42979;DHT22;28616;44.746;19.678;2022-11-20T14:05:18;6.70;99.90
42979;DHT22;28616;44.746;19.678;2022-11-20T14:07:45;6.60;99.90
42979;DHT22;28616;44.746;19.678;2022-11-20T14:10:26;6.60;99.90
42979;DHT22;28616;44.746;19.678;2022-11-20T14:12:53;6.50;99.90
42979;DHT22;28616;44.746;19.678;2022-11-20T14:15:33;6.60;99.90
42979;DHT22;28616;44.746;19.678;2022-11-20T14:17:59;6.50;99.90
42979;DHT22;28616;44.746;19.678;2022-11-20T14:20:29;6.50;99.90
42979;DHT22;28616;44.746;19.678;2022-11-20T14:22:56;6.50;99.90
42979;DHT22;28616;44.746;19.678;2022-11-20T14:25:25;6.50;99.90
42979;DHT22;28616;44.746;19.678;2022-11-20T14:28:00;6.50;99.90
42979;DHT22;28616;44.746;19.678;2022-11-20T14:30:42;6.50;99.90
42979;DHT22;28616;44.746;19.678;2022-11-20T14:33:11;6.50;99.90
42979;DHT22;28616;44.746;19.678;2022-11-20T14:35:45;6.50;99.90
42979;DHT22;28616;44.746;19.678;2022-11-20T14:38:17;6.50;99.90
42979;DHT22;28616;44.746;19.678;2022-11-20T14:40:43;6.50;99.90
42979;DHT22;28616;44.746;19.678;2022-11-20T14:43:36;6.50;99.90
42979;DHT22;28616;44.746;19.678;2022-11-20T14:46:05;6.50;99.90
42979;DHT22;28616;44.746;19.678;2022-11-20T14:48:50;6.60;99.90
42979;DHT22;28616;44.746;19.678;2022-11-20T14:51:39;6.60;99.90
42979;DHT22;28616;44.746;19.678;2022-11-20T14:54:11;6.60;99.90
42979;DHT22;28616;44.746;19.678;2022-11-20T14:56:37;6.60;99.90
42979;DHT22;28616;44.746;19.678;2022-11-20T14:59:03;6.60;99.90
42979;DHT22;28616;44.746;19.678;2022-11-20T15:01:30;6.50;99.90
42979;DHT22;28616;44.746;19.678;2022-11-20T15:04:09;6.50;99.90
42979;DHT22;28616;44.746;19.678;2022-11-20T15:06:36;6.50;99.90
42979;DHT22;28616;44.746;19.678;2022-11-20T15:09:03;6.50;99.90
42979;DHT22;28616;44.746;19.678;2022-11-20T15:11:32;6.50;99.90
42979;DHT22;28616;44.746;19.678;2022-11-20T15:14:04;6.50;99.90
42979;DHT22;28616;44.746;19.678;2022-11-20T15:16:31;6.60;99.90
42979;DHT22;28616;44.746;19.678;2022-11-20T15:18:57;6.50;99.90
42979;DHT22;28616;44.746;19.678;2022-11-20T15:21:23;6.60;99.90
42979;DHT22;28616;44.746;19.678;2022-11-20T15:23:50;6.60;99.90
42979;DHT22;28616;44.746;19.678;2022-11-20T15:26:25;6.60;99.90
42979;DHT22;28616;44.746;19.678;2022-11-20T15:28:52;6.60;99.90
42979;DHT22;28616;44.746;19.678;2022-11-20T15:31:20;6.50;99.90
42979;DHT22;28616;44.746;19.678;2022-11-20T15:33:47;6.50;99.90
42979;DHT22;28616;44.746;19.678;2022-11-20T15:36:12;6.50;99.90
42979;DHT22;28616;44.746;19.678;2022-11-20T15:38:38;6.50;99.90
42979;DHT22;28616;44.746;19.678;2022-11-20T15:41:04;6.50;99.90
42979;DHT22;28616;44.746;19.678;2022-11-20T15:43:30;6.50;99.90
42979;DHT22;28616;44.746;19.678;2022-11-20T15:45:59;6.50;99.90
42979;DHT22;28616;44.746;19.678;2022-11-20T15:48:51;6.50;99.90
42979;DHT22;28616;44.746;19.678;2022-11-20T15:51:29;6.50;99.90
42979;DHT22;28616;44.746;19.678;2022-11-20T15:53:56;6.50;99.90
42979;DHT22;28616;44.746;19.678;2022-11-20T15:56:22;6.50;99.90
42979;DHT22;28616;44.746;19.678;2022-11-20T15:58:48;6.50;99.90
42979;DHT22;28616;44.746;19.678;2022-11-20T16:01:19;6.50;99.90
42979;DHT22;28616;44.746;19.678;2022-11-20T16:03:46;6.50;99.90
42979;DHT22;28616;44.746;19.678;2022-11-20T16:06:12;6.50;99.90
42979;DHT22;28616;44.746;19.678;2022-11-20T16:08:38;6.50;99.90
42979;DHT22;28616;44.746;19.678;2022-11-20T16:11:04;6.50;99.90
42979;DHT22;28616;44.746;19.678;2022-11-20T16:13:31;6.50;99.90
42979;DHT22;28616;44.746;19.678;2022-11-20T16:16:28;6.40;99.90
42979;DHT22;28616;44.746;19.678;2022-11-20T16:18:55;6.50;99.90
42979;DHT22;28616;44.746;19.678;2022-11-20T16:21:21;6.50;99.90
42979;DHT22;28616;44.746;19.678;2022-11-20T16:23:53;6.60;99.90
42979;DHT22;28616;44.746;19.678;2022-11-20T16:26:19;6.60;99.90
42979;DHT22;28616;44.746;19.678;2022-11-20T16:28:46;6.60;99.90
42979;DHT22;28616;44.746;19.678;2022-11-20T16:31:14;6.60;99.90
42979;DHT22;28616;44.746;19.678;2022-11-20T16:33:40;6.60;99.90
42979;DHT22;28616;44.746;19.678;2022-11-20T16:36:14;6.60;99.90
42979;DHT22;28616;44.746;19.678;2022-11-20T16:38:40;6.60;99.90
42979;DHT22;28616;44.746;19.678;2022-11-20T16:41:07;6.50;99.90
42979;DHT22;28616;44.746;19.678;2022-11-20T16:43:45;6.60;99.90
42979;DHT22;28616;44.746;19.678;2022-11-20T16:46:12;6.50;99.90
42979;DHT22;28616;44.746;19.678;2022-11-20T16:48:38;6.50;99.90
42979;DHT22;28616;44.746;19.678;2022-11-20T16:51:08;6.50;99.90
42979;DHT22;28616;44.746;19.678;2022-11-20T16:53:35;6.50;99.90
42979;DHT22;28616;44.746;19.678;2022-11-20T16:56:12;6.60;99.90
42979;DHT22;28616;44.746;19.678;2022-11-20T16:58:40;6.60;99.90
42979;DHT22;28616;44.746;19.678;2022-11-20T17:01:11;6.60;99.90
42979;DHT22;28616;44.746;19.678;2022-11-20T17:03:41;6.70;99.90
42979;DHT22;28616;44.746;19.678;2022-11-20T17:06:15;6.70;99.90
42979;DHT22;28616;44.746;19.678;2022-11-20T17:08:41;6.60;99.90
42979;DHT22;28616;44.746;19.678;2022-11-20T17:11:09;6.60;99.90
42979;DHT22;28616;44.746;19.678;2022-11-20T17:13:36;6.60;99.90
42979;DHT22;28616;44.746;19.678;2022-11-20T17:16:04;6.70;99.90